sensor_id;sensor_type;location;lat;lon;timestamp;P1;durP1;ratioP1;P2;durP2;ratioP2
17574;SDS011;8906;43.590;1.418;2023-04-15T00:00:38;12.05;;;4.63;;
17574;SDS011;8906;43.590;1.418;2023-04-15T00:03:05;14.00;;;5.28;;
17574;SDS011;8906;43.590;1.418;2023-04-15T00:05:32;16.48;;;5.18;;
17574;SDS011;8906;43.590;1.418;2023-04-15T00:08:01;22.30;;;6.70;;
17574;SDS011;8906;43.590;1.418;2023-04-15T00:10:27;12.50;;;4.97;;
17574;SDS011;8906;43.590;1.418;2023-04-15T00:12:54;11.75;;;4.72;;
17574;SDS011;8906;43.590;1.418;2023-04-15T00:15:21;13.93;;;7.82;;
17574;SDS011;8906;43.590;1.418;2023-04-15T00:17:49;22.92;;;6.80;;
17574;SDS011;8906;43.590;1.418;2023-04-15T00:20:16;15.00;;;3.85;;
17574;SDS011;8906;43.590;1.418;2023-04-15T00:22:43;19.13;;;5.03;;
17574;SDS011;8906;43.590;1.418;2023-04-15T00:25:11;26.52;;;6.90;;
17574;SDS011;8906;43.590;1.418;2023-04-15T00:27:39;17.05;;;6.88;;
17574;SDS011;8906;43.590;1.418;2023-04-15T00:30:06;16.65;;;4.90;;
17574;SDS011;8906;43.590;1.418;2023-04-15T00:32:33;26.92;;;6.18;;
17574;SDS011;8906;43.590;1.418;2023-04-15T00:35:00;15.85;;;5.93;;
17574;SDS011;8906;43.590;1.418;2023-04-15T00:37:28;10.63;;;5.90;;
17574;SDS011;8906;43.590;1.418;2023-04-15T00:39:55;18.23;;;5.32;;
17574;SDS011;8906;43.590;1.418;2023-04-15T00:42:23;13.07;;;5.13;;
17574;SDS011;8906;43.590;1.418;2023-04-15T00:44:50;29.75;;;7.18;;
17574;SDS011;8906;43.590;1.418;2023-04-15T00:47:17;17.08;;;6.15;;
17574;SDS011;8906;43.590;1.418;2023-04-15T00:49:45;19.73;;;5.20;;
17574;SDS011;8906;43.590;1.418;2023-04-15T00:52:12;16.85;;;5.90;;
17574;SDS011;8906;43.590;1.418;2023-04-15T00:54:39;14.45;;;5.32;;
17574;SDS011;8906;43.590;1.418;2023-04-15T00:57:06;18.17;;;5.18;;
17574;SDS011;8906;43.590;1.418;2023-04-15T00:59:35;13.07;;;4.85;;
17574;SDS011;8906;43.590;1.418;2023-04-15T01:02:02;16.38;;;6.25;;
17574;SDS011;8906;43.590;1.418;2023-04-15T01:04:29;13.00;;;5.97;;
17574;SDS011;8906;43.590;1.418;2023-04-15T01:06:56;16.00;;;4.45;;
17574;SDS011;8906;43.590;1.418;2023-04-15T01:09:23;12.63;;;4.82;;
17574;SDS011;8906;43.590;1.418;2023-04-15T01:11:51;21.48;;;5.82;;
17574;SDS011;8906;43.590;1.418;2023-04-15T01:14:18;17.17;;;4.50;;
17574;SDS011;8906;43.590;1.418;2023-04-15T01:16:47;9.82;;;5.18;;
17574;SDS011;8906;43.590;1.418;2023-04-15T01:19:14;20.17;;;6.60;;
17574;SDS011;8906;43.590;1.418;2023-04-15T01:21:42;14.53;;;4.77;;
17574;SDS011;8906;43.590;1.418;2023-04-15T01:24:10;16.23;;;6.13;;
17574;SDS011;8906;43.590;1.418;2023-04-15T01:26:40;13.40;;;5.50;;
17574;SDS011;8906;43.590;1.418;2023-04-15T01:29:07;13.82;;;5.78;;
17574;SDS011;8906;43.590;1.418;2023-04-15T01:31:34;15.70;;;6.70;;
17574;SDS011;8906;43.590;1.418;2023-04-15T01:34:01;18.03;;;4.73;;
17574;SDS011;8906;43.590;1.418;2023-04-15T01:36:28;16.45;;;4.13;;
17574;SDS011;8906;43.590;1.418;2023-04-15T01:38:56;16.77;;;4.57;;
17574;SDS011;8906;43.590;1.418;2023-04-15T01:41:24;12.27;;;5.35;;
17574;SDS011;8906;43.590;1.418;2023-04-15T01:43:53;10.48;;;4.13;;
17574;SDS011;8906;43.590;1.418;2023-04-15T01:46:21;18.48;;;5.95;;
17574;SDS011;8906;43.590;1.418;2023-04-15T01:48:48;6.25;;;3.55;;
17574;SDS011;8906;43.590;1.418;2023-04-15T01:51:15;9.90;;;3.07;;
17574;SDS011;8906;43.590;1.418;2023-04-15T01:53:42;10.85;;;3.83;;
17574;SDS011;8906;43.590;1.418;2023-04-15T01:56:08;7.05;;;3.30;;
17574;SDS011;8906;43.590;1.418;2023-04-15T01:58:35;9.63;;;3.10;;
17574;SDS011;8906;43.590;1.418;2023-04-15T02:01:05;7.80;;;3.75;;
17574;SDS011;8906;43.590;1.418;2023-04-15T02:03:34;8.52;;;3.90;;
17574;SDS011;8906;43.590;1.418;2023-04-15T02:06:01;11.65;;;3.60;;
17574;SDS011;8906;43.590;1.418;2023-04-15T02:08:28;15.55;;;3.88;;
17574;SDS011;8906;43.590;1.418;2023-04-15T02:10:55;7.68;;;2.83;;
17574;SDS011;8906;43.590;1.418;2023-04-15T02:13:22;4.95;;;2.67;;
17574;SDS011;8906;43.590;1.418;2023-04-15T02:15:49;11.50;;;3.33;;
17574;SDS011;8906;43.590;1.418;2023-04-15T02:18:17;11.77;;;4.03;;
17574;SDS011;8906;43.590;1.418;2023-04-15T02:20:44;9.48;;;3.42;;
17574;SDS011;8906;43.590;1.418;2023-04-15T02:23:12;6.28;;;3.08;;
17574;SDS011;8906;43.590;1.418;2023-04-15T02:25:39;5.67;;;2.23;;
17574;SDS011;8906;43.590;1.418;2023-04-15T02:28:06;10.02;;;3.22;;
17574;SDS011;8906;43.590;1.418;2023-04-15T02:30:33;13.68;;;3.72;;
17574;SDS011;8906;43.590;1.418;2023-04-15T02:33:00;9.60;;;2.85;;
17574;SDS011;8906;43.590;1.418;2023-04-15T02:35:29;4.80;;;2.28;;
17574;SDS011;8906;43.590;1.418;2023-04-15T02:37:56;11.57;;;2.50;;
17574;SDS011;8906;43.590;1.418;2023-04-15T02:40:23;5.60;;;2.60;;
17574;SDS011;8906;43.590;1.418;2023-04-15T02:42:51;7.80;;;2.80;;
17574;SDS011;8906;43.590;1.418;2023-04-15T02:45:18;4.83;;;2.30;;
17574;SDS011;8906;43.590;1.418;2023-04-15T02:47:48;6.57;;;1.73;;
17574;SDS011;8906;43.590;1.418;2023-04-15T02:50:15;7.15;;;3.00;;
17574;SDS011;8906;43.590;1.418;2023-04-15T02:52:43;9.47;;;3.00;;
17574;SDS011;8906;43.590;1.418;2023-04-15T02:55:10;7.57;;;2.25;;
17574;SDS011;8906;43.590;1.418;2023-04-15T02:57:37;5.57;;;3.90;;
17574;SDS011;8906;43.590;1.418;2023-04-15T03:00:05;10.47;;;3.20;;
17574;SDS011;8906;43.590;1.418;2023-04-15T03:02:35;10.43;;;3.70;;
17574;SDS011;8906;43.590;1.418;2023-04-15T03:05:03;10.37;;;3.53;;
17574;SDS011;8906;43.590;1.418;2023-04-15T03:07:31;10.02;;;3.70;;
17574;SDS011;8906;43.590;1.418;2023-04-15T03:09:59;6.93;;;2.20;;
17574;SDS011;8906;43.590;1.418;2023-04-15T03:12:26;8.33;;;2.23;;
17574;SDS011;8906;43.590;1.418;2023-04-15T03:14:54;3.20;;;1.87;;
17574;SDS011;8906;43.590;1.418;2023-04-15T03:17:21;4.57;;;1.45;;
17574;SDS011;8906;43.590;1.418;2023-04-15T03:19:48;3.97;;;1.45;;
17574;SDS011;8906;43.590;1.418;2023-04-15T03:22:15;3.85;;;2.65;;
17574;SDS011;8906;43.590;1.418;2023-04-15T03:24:42;2.30;;;1.50;;
17574;SDS011;8906;43.590;1.418;2023-04-15T03:27:10;5.10;;;1.20;;
17574;SDS011;8906;43.590;1.418;2023-04-15T03:29:37;5.17;;;1.93;;
17574;SDS011;8906;43.590;1.418;2023-04-15T03:32:04;3.33;;;1.60;;
17574;SDS011;8906;43.590;1.418;2023-04-15T03:34:31;3.40;;;1.40;;
17574;SDS011;8906;43.590;1.418;2023-04-15T03:36:58;3.33;;;0.83;;
17574;SDS011;8906;43.590;1.418;2023-04-15T03:39:25;4.65;;;2.60;;
17574;SDS011;8906;43.590;1.418;2023-04-15T03:41:52;4.60;;;2.57;;
17574;SDS011;8906;43.590;1.418;2023-04-15T03:44:20;3.88;;;2.47;;
17574;SDS011;8906;43.590;1.418;2023-04-15T03:46:47;3.88;;;1.88;;
17574;SDS011;8906;43.590;1.418;2023-04-15T03:49:14;7.70;;;1.67;;
17574;SDS011;8906;43.590;1.418;2023-04-15T03:51:41;5.27;;;2.23;;
17574;SDS011;8906;43.590;1.418;2023-04-15T03:54:08;6.13;;;2.73;;
17574;SDS011;8906;43.590;1.418;2023-04-15T03:56:35;9.20;;;3.10;;
17574;SDS011;8906;43.590;1.418;2023-04-15T03:59:02;3.30;;;1.80;;
17574;SDS011;8906;43.590;1.418;2023-04-15T04:01:30;10.67;;;2.37;;
17574;SDS011;8906;43.590;1.418;2023-04-15T04:03:57;9.33;;;3.23;;
17574;SDS011;8906;43.590;1.418;2023-04-15T04:06:24;6.43;;;2.63;;
17574;SDS011;8906;43.590;1.418;2023-04-15T04:08:52;10.73;;;2.10;;
17574;SDS011;8906;43.590;1.418;2023-04-15T04:11:19;7.63;;;2.95;;
17574;SDS011;8906;43.590;1.418;2023-04-15T04:13:46;8.60;;;3.10;;
17574;SDS011;8906;43.590;1.418;2023-04-15T04:16:13;7.93;;;1.90;;
17574;SDS011;8906;43.590;1.418;2023-04-15T04:18:41;6.97;;;2.30;;
17574;SDS011;8906;43.590;1.418;2023-04-15T04:21:08;6.43;;;2.50;;
17574;SDS011;8906;43.590;1.418;2023-04-15T04:23:35;5.83;;;2.40;;
17574;SDS011;8906;43.590;1.418;2023-04-15T04:26:02;9.20;;;2.78;;
17574;SDS011;8906;43.590;1.418;2023-04-15T04:28:29;8.87;;;2.43;;
17574;SDS011;8906;43.590;1.418;2023-04-15T04:30:55;8.37;;;3.40;;
17574;SDS011;8906;43.590;1.418;2023-04-15T04:33:22;7.97;;;2.83;;
17574;SDS011;8906;43.590;1.418;2023-04-15T04:35:51;7.57;;;2.60;;
17574;SDS011;8906;43.590;1.418;2023-04-15T04:38:18;12.43;;;3.57;;
17574;SDS011;8906;43.590;1.418;2023-04-15T04:40:45;9.30;;;2.53;;
17574;SDS011;8906;43.590;1.418;2023-04-15T04:43:12;7.30;;;3.30;;
17574;SDS011;8906;43.590;1.418;2023-04-15T04:45:40;10.05;;;4.18;;
17574;SDS011;8906;43.590;1.418;2023-04-15T04:48:07;5.77;;;2.57;;
17574;SDS011;8906;43.590;1.418;2023-04-15T04:50:34;9.00;;;2.87;;
17574;SDS011;8906;43.590;1.418;2023-04-15T04:53:03;6.13;;;2.80;;
17574;SDS011;8906;43.590;1.418;2023-04-15T04:55:30;15.93;;;4.20;;
17574;SDS011;8906;43.590;1.418;2023-04-15T04:57:57;8.55;;;3.08;;
17574;SDS011;8906;43.590;1.418;2023-04-15T05:00:24;7.70;;;3.00;;
17574;SDS011;8906;43.590;1.418;2023-04-15T05:02:50;11.30;;;3.35;;
17574;SDS011;8906;43.590;1.418;2023-04-15T05:05:17;11.77;;;3.13;;
17574;SDS011;8906;43.590;1.418;2023-04-15T05:07:44;8.77;;;2.35;;
17574;SDS011;8906;43.590;1.418;2023-04-15T05:10:14;15.73;;;4.37;;
17574;SDS011;8906;43.590;1.418;2023-04-15T05:12:42;9.52;;;3.00;;
17574;SDS011;8906;43.590;1.418;2023-04-15T05:15:09;8.20;;;3.67;;
17574;SDS011;8906;43.590;1.418;2023-04-15T05:17:36;14.87;;;3.60;;
17574;SDS011;8906;43.590;1.418;2023-04-15T05:20:03;8.60;;;2.90;;
17574;SDS011;8906;43.590;1.418;2023-04-15T05:22:31;11.23;;;3.92;;
17574;SDS011;8906;43.590;1.418;2023-04-15T05:24:58;9.10;;;1.97;;
17574;SDS011;8906;43.590;1.418;2023-04-15T05:27:26;11.25;;;2.80;;
17574;SDS011;8906;43.590;1.418;2023-04-15T05:29:53;8.77;;;2.63;;
17574;SDS011;8906;43.590;1.418;2023-04-15T05:32:20;9.07;;;2.50;;
17574;SDS011;8906;43.590;1.418;2023-04-15T05:34:47;4.80;;;2.33;;
17574;SDS011;8906;43.590;1.418;2023-04-15T05:37:14;4.82;;;2.35;;
17574;SDS011;8906;43.590;1.418;2023-04-15T05:39:41;4.68;;;1.90;;
17574;SDS011;8906;43.590;1.418;2023-04-15T05:42:08;6.55;;;2.10;;
17574;SDS011;8906;43.590;1.418;2023-04-15T05:44:39;4.35;;;2.20;;
17574;SDS011;8906;43.590;1.418;2023-04-15T05:47:06;3.17;;;1.65;;
17574;SDS011;8906;43.590;1.418;2023-04-15T05:49:34;9.35;;;2.03;;
17574;SDS011;8906;43.590;1.418;2023-04-15T05:52:01;9.60;;;3.60;;
17574;SDS011;8906;43.590;1.418;2023-04-15T05:54:28;3.77;;;1.70;;
17574;SDS011;8906;43.590;1.418;2023-04-15T05:56:55;7.00;;;2.43;;
17574;SDS011;8906;43.590;1.418;2023-04-15T05:59:23;4.30;;;1.57;;
17574;SDS011;8906;43.590;1.418;2023-04-15T06:01:51;2.47;;;1.33;;
17574;SDS011;8906;43.590;1.418;2023-04-15T06:04:18;5.75;;;2.15;;
17574;SDS011;8906;43.590;1.418;2023-04-15T06:06:45;9.27;;;2.88;;
17574;SDS011;8906;43.590;1.418;2023-04-15T06:09:12;7.87;;;1.73;;
17574;SDS011;8906;43.590;1.418;2023-04-15T06:11:40;5.07;;;1.77;;
17574;SDS011;8906;43.590;1.418;2023-04-15T06:14:07;4.63;;;1.27;;
17574;SDS011;8906;43.590;1.418;2023-04-15T06:16:33;3.17;;;1.27;;
17574;SDS011;8906;43.590;1.418;2023-04-15T06:19:04;6.00;;;2.70;;
17574;SDS011;8906;43.590;1.418;2023-04-15T06:21:30;3.73;;;2.13;;
17574;SDS011;8906;43.590;1.418;2023-04-15T06:23:57;3.70;;;1.25;;
17574;SDS011;8906;43.590;1.418;2023-04-15T06:26:26;7.38;;;2.90;;
17574;SDS011;8906;43.590;1.418;2023-04-15T06:28:53;8.00;;;2.40;;
17574;SDS011;8906;43.590;1.418;2023-04-15T06:31:20;3.90;;;1.37;;
17574;SDS011;8906;43.590;1.418;2023-04-15T06:33:47;4.37;;;1.90;;
17574;SDS011;8906;43.590;1.418;2023-04-15T06:36:15;7.03;;;1.88;;
17574;SDS011;8906;43.590;1.418;2023-04-15T06:38:42;4.90;;;1.77;;
17574;SDS011;8906;43.590;1.418;2023-04-15T06:41:09;4.10;;;1.88;;
17574;SDS011;8906;43.590;1.418;2023-04-15T06:43:36;4.38;;;1.67;;
17574;SDS011;8906;43.590;1.418;2023-04-15T06:46:03;7.30;;;2.50;;
17574;SDS011;8906;43.590;1.418;2023-04-15T06:48:31;4.72;;;1.25;;
17574;SDS011;8906;43.590;1.418;2023-04-15T06:50:57;3.10;;;0.85;;
17574;SDS011;8906;43.590;1.418;2023-04-15T06:53:26;2.35;;;0.50;;
17574;SDS011;8906;43.590;1.418;2023-04-15T06:55:53;0.73;;;0.50;;
17574;SDS011;8906;43.590;1.418;2023-04-15T06:58:20;2.05;;;0.70;;
17574;SDS011;8906;43.590;1.418;2023-04-15T07:00:47;0.90;;;0.60;;
17574;SDS011;8906;43.590;1.418;2023-04-15T07:03:14;0.93;;;0.43;;
17574;SDS011;8906;43.590;1.418;2023-04-15T07:05:40;1.02;;;0.70;;
17574;SDS011;8906;43.590;1.418;2023-04-15T07:08:07;1.15;;;0.60;;
17574;SDS011;8906;43.590;1.418;2023-04-15T07:10:36;0.65;;;0.60;;
17574;SDS011;8906;43.590;1.418;2023-04-15T07:13:03;2.50;;;1.10;;
17574;SDS011;8906;43.590;1.418;2023-04-15T07:15:31;2.07;;;0.60;;
17574;SDS011;8906;43.590;1.418;2023-04-15T07:17:58;2.30;;;0.90;;
17574;SDS011;8906;43.590;1.418;2023-04-15T07:20:24;5.67;;;1.40;;
17574;SDS011;8906;43.590;1.418;2023-04-15T07:22:51;5.03;;;1.27;;
17574;SDS011;8906;43.590;1.418;2023-04-15T07:25:19;3.53;;;1.20;;
17574;SDS011;8906;43.590;1.418;2023-04-15T07:27:47;3.90;;;1.20;;
17574;SDS011;8906;43.590;1.418;2023-04-15T07:30:14;2.60;;;0.90;;
17574;SDS011;8906;43.590;1.418;2023-04-15T07:32:41;1.67;;;1.10;;
17574;SDS011;8906;43.590;1.418;2023-04-15T07:35:08;4.10;;;1.33;;
17574;SDS011;8906;43.590;1.418;2023-04-15T07:37:35;3.97;;;1.00;;
17574;SDS011;8906;43.590;1.418;2023-04-15T07:40:02;1.27;;;0.90;;
17574;SDS011;8906;43.590;1.418;2023-04-15T07:42:31;3.45;;;1.35;;
17574;SDS011;8906;43.590;1.418;2023-04-15T07:44:59;2.23;;;1.00;;
17574;SDS011;8906;43.590;1.418;2023-04-15T07:47:26;4.63;;;1.20;;
17574;SDS011;8906;43.590;1.418;2023-04-15T07:49:53;4.63;;;1.00;;
17574;SDS011;8906;43.590;1.418;2023-04-15T07:52:20;2.57;;;1.40;;
17574;SDS011;8906;43.590;1.418;2023-04-15T07:54:47;7.43;;;1.67;;
17574;SDS011;8906;43.590;1.418;2023-04-15T07:57:14;1.70;;;1.05;;
17574;SDS011;8906;43.590;1.418;2023-04-15T07:59:41;6.75;;;2.53;;
17574;SDS011;8906;43.590;1.418;2023-04-15T08:02:09;2.88;;;1.10;;
17574;SDS011;8906;43.590;1.418;2023-04-15T08:04:36;5.25;;;1.98;;
17574;SDS011;8906;43.590;1.418;2023-04-15T08:07:03;2.92;;;1.35;;
17574;SDS011;8906;43.590;1.418;2023-04-15T08:09:31;3.80;;;1.52;;
17574;SDS011;8906;43.590;1.418;2023-04-15T08:11:58;5.30;;;2.67;;
17574;SDS011;8906;43.590;1.418;2023-04-15T08:14:25;6.82;;;1.52;;
17574;SDS011;8906;43.590;1.418;2023-04-15T08:16:52;3.30;;;1.65;;
17574;SDS011;8906;43.590;1.418;2023-04-15T08:19:20;5.00;;;1.92;;
17574;SDS011;8906;43.590;1.418;2023-04-15T08:21:48;2.20;;;1.77;;
17574;SDS011;8906;43.590;1.418;2023-04-15T08:24:15;4.55;;;1.60;;
17574;SDS011;8906;43.590;1.418;2023-04-15T08:26:42;6.60;;;1.33;;
17574;SDS011;8906;43.590;1.418;2023-04-15T08:29:09;10.50;;;3.38;;
17574;SDS011;8906;43.590;1.418;2023-04-15T08:31:35;2.85;;;1.60;;
17574;SDS011;8906;43.590;1.418;2023-04-15T08:34:02;3.88;;;1.20;;
17574;SDS011;8906;43.590;1.418;2023-04-15T08:36:31;2.00;;;1.08;;
17574;SDS011;8906;43.590;1.418;2023-04-15T08:38:58;3.47;;;1.48;;
17574;SDS011;8906;43.590;1.418;2023-04-15T08:41:26;3.08;;;1.08;;
17574;SDS011;8906;43.590;1.418;2023-04-15T08:44:00;7.85;;;2.10;;
17574;SDS011;8906;43.590;1.418;2023-04-15T08:46:29;5.45;;;1.58;;
17574;SDS011;8906;43.590;1.418;2023-04-15T08:48:58;3.80;;;2.00;;
17574;SDS011;8906;43.590;1.418;2023-04-15T08:51:27;3.35;;;2.13;;
17574;SDS011;8906;43.590;1.418;2023-04-15T08:53:57;3.92;;;1.48;;
17574;SDS011;8906;43.590;1.418;2023-04-15T08:56:25;1.30;;;0.98;;
17574;SDS011;8906;43.590;1.418;2023-04-15T08:58:56;2.60;;;1.77;;
17574;SDS011;8906;43.590;1.418;2023-04-15T09:01:23;13.45;;;2.78;;
17574;SDS011;8906;43.590;1.418;2023-04-15T09:03:51;5.13;;;1.60;;
17574;SDS011;8906;43.590;1.418;2023-04-15T09:06:19;5.10;;;2.35;;
17574;SDS011;8906;43.590;1.418;2023-04-15T09:08:46;4.10;;;1.65;;
17574;SDS011;8906;43.590;1.418;2023-04-15T09:11:15;2.15;;;1.10;;
17574;SDS011;8906;43.590;1.418;2023-04-15T09:13:43;3.20;;;1.13;;
17574;SDS011;8906;43.590;1.418;2023-04-15T09:16:10;4.40;;;1.75;;
17574;SDS011;8906;43.590;1.418;2023-04-15T09:18:38;6.45;;;1.63;;
17574;SDS011;8906;43.590;1.418;2023-04-15T09:21:05;2.80;;;1.30;;
17574;SDS011;8906;43.590;1.418;2023-04-15T09:23:35;4.30;;;1.58;;
17574;SDS011;8906;43.590;1.418;2023-04-15T09:26:03;3.35;;;1.27;;
17574;SDS011;8906;43.590;1.418;2023-04-15T09:28:32;4.18;;;1.33;;
17574;SDS011;8906;43.590;1.418;2023-04-15T09:31:07;7.13;;;2.65;;
17574;SDS011;8906;43.590;1.418;2023-04-15T09:33:34;7.03;;;3.03;;
17574;SDS011;8906;43.590;1.418;2023-04-15T09:36:01;6.47;;;1.60;;
17574;SDS011;8906;43.590;1.418;2023-04-15T09:38:30;3.30;;;1.77;;
17574;SDS011;8906;43.590;1.418;2023-04-15T09:40:57;1.83;;;1.27;;
17574;SDS011;8906;43.590;1.418;2023-04-15T09:43:37;3.88;;;1.35;;
17574;SDS011;8906;43.590;1.418;2023-04-15T09:46:05;3.80;;;1.85;;
17574;SDS011;8906;43.590;1.418;2023-04-15T09:48:32;3.28;;;2.13;;
17574;SDS011;8906;43.590;1.418;2023-04-15T09:50:59;4.57;;;2.17;;
17574;SDS011;8906;43.590;1.418;2023-04-15T09:53:27;3.65;;;1.67;;
17574;SDS011;8906;43.590;1.418;2023-04-15T09:55:54;7.75;;;2.90;;
17574;SDS011;8906;43.590;1.418;2023-04-15T09:58:23;2.50;;;1.65;;
17574;SDS011;8906;43.590;1.418;2023-04-15T10:00:53;5.07;;;1.70;;
17574;SDS011;8906;43.590;1.418;2023-04-15T10:03:21;6.07;;;1.90;;
17574;SDS011;8906;43.590;1.418;2023-04-15T10:05:52;5.68;;;3.58;;
17574;SDS011;8906;43.590;1.418;2023-04-15T10:08:26;4.45;;;2.28;;
17574;SDS011;8906;43.590;1.418;2023-04-15T10:10:53;3.33;;;1.55;;
17574;SDS011;8906;43.590;1.418;2023-04-15T10:13:22;6.53;;;1.90;;
17574;SDS011;8906;43.590;1.418;2023-04-15T10:15:50;5.70;;;1.60;;
17574;SDS011;8906;43.590;1.418;2023-04-15T10:18:22;5.35;;;2.20;;
17574;SDS011;8906;43.590;1.418;2023-04-15T10:20:51;5.05;;;1.90;;
17574;SDS011;8906;43.590;1.418;2023-04-15T10:23:19;7.40;;;1.42;;
17574;SDS011;8906;43.590;1.418;2023-04-15T10:25:46;2.60;;;1.20;;
17574;SDS011;8906;43.590;1.418;2023-04-15T10:28:14;6.82;;;2.05;;
17574;SDS011;8906;43.590;1.418;2023-04-15T10:30:42;4.40;;;1.33;;
17574;SDS011;8906;43.590;1.418;2023-04-15T10:33:09;2.17;;;1.10;;
17574;SDS011;8906;43.590;1.418;2023-04-15T10:35:38;10.50;;;2.40;;
17574;SDS011;8906;43.590;1.418;2023-04-15T10:41:16;10.30;;;3.28;;
17574;SDS011;8906;43.590;1.418;2023-04-15T10:43:45;3.13;;;1.77;;
17574;SDS011;8906;43.590;1.418;2023-04-15T10:46:17;4.32;;;1.30;;
17574;SDS011;8906;43.590;1.418;2023-04-15T10:48:46;2.85;;;1.38;;
17574;SDS011;8906;43.590;1.418;2023-04-15T10:51:15;3.30;;;1.20;;
17574;SDS011;8906;43.590;1.418;2023-04-15T10:53:54;3.72;;;1.25;;
17574;SDS011;8906;43.590;1.418;2023-04-15T10:56:22;6.05;;;1.73;;
17574;SDS011;8906;43.590;1.418;2023-04-15T10:58:49;5.38;;;2.10;;
17574;SDS011;8906;43.590;1.418;2023-04-15T11:01:16;1.83;;;1.00;;
17574;SDS011;8906;43.590;1.418;2023-04-15T11:03:47;1.88;;;1.00;;
17574;SDS011;8906;43.590;1.418;2023-04-15T11:06:16;1.50;;;1.10;;
17574;SDS011;8906;43.590;1.418;2023-04-15T11:08:53;3.33;;;1.63;;
17574;SDS011;8906;43.590;1.418;2023-04-15T11:14:32;3.75;;;2.55;;
17574;SDS011;8906;43.590;1.418;2023-04-15T11:17:00;1.85;;;1.33;;
17574;SDS011;8906;43.590;1.418;2023-04-15T11:19:34;3.95;;;1.92;;
17574;SDS011;8906;43.590;1.418;2023-04-15T11:22:07;3.55;;;1.73;;
17574;SDS011;8906;43.590;1.418;2023-04-15T11:24:34;4.18;;;1.75;;
17574;SDS011;8906;43.590;1.418;2023-04-15T11:27:01;6.57;;;1.70;;
17574;SDS011;8906;43.590;1.418;2023-04-15T11:29:28;3.00;;;1.20;;
17574;SDS011;8906;43.590;1.418;2023-04-15T11:32:03;5.72;;;2.90;;
17574;SDS011;8906;43.590;1.418;2023-04-15T11:34:31;4.45;;;1.42;;
17574;SDS011;8906;43.590;1.418;2023-04-15T11:36:59;5.43;;;1.77;;
17574;SDS011;8906;43.590;1.418;2023-04-15T11:39:31;1.40;;;1.20;;
17574;SDS011;8906;43.590;1.418;2023-04-15T11:41:57;2.65;;;1.25;;
17574;SDS011;8906;43.590;1.418;2023-04-15T11:44:24;3.95;;;2.20;;
17574;SDS011;8906;43.590;1.418;2023-04-15T11:46:53;6.28;;;3.10;;
17574;SDS011;8906;43.590;1.418;2023-04-15T11:49:27;2.97;;;1.92;;
17574;SDS011;8906;43.590;1.418;2023-04-15T11:51:55;2.97;;;1.45;;
17574;SDS011;8906;43.590;1.418;2023-04-15T11:54:22;1.27;;;1.02;;
17574;SDS011;8906;43.590;1.418;2023-04-15T11:56:50;4.85;;;1.25;;
17574;SDS011;8906;43.590;1.418;2023-04-15T11:59:18;1.20;;;1.10;;
17574;SDS011;8906;43.590;1.418;2023-04-15T12:01:45;1.38;;;1.27;;
17574;SDS011;8906;43.590;1.418;2023-04-15T12:04:12;2.60;;;1.20;;
17574;SDS011;8906;43.590;1.418;2023-04-15T12:06:41;3.20;;;2.15;;
17574;SDS011;8906;43.590;1.418;2023-04-15T12:09:09;2.42;;;1.30;;
17574;SDS011;8906;43.590;1.418;2023-04-15T12:11:41;1.88;;;1.00;;
17574;SDS011;8906;43.590;1.418;2023-04-15T12:14:11;5.93;;;1.30;;
17574;SDS011;8906;43.590;1.418;2023-04-15T12:16:43;3.20;;;1.38;;
17574;SDS011;8906;43.590;1.418;2023-04-15T12:19:11;3.35;;;1.45;;
17574;SDS011;8906;43.590;1.418;2023-04-15T12:21:40;2.28;;;0.93;;
17574;SDS011;8906;43.590;1.418;2023-04-15T12:24:10;3.75;;;1.45;;
17574;SDS011;8906;43.590;1.418;2023-04-15T12:26:43;3.05;;;1.77;;
17574;SDS011;8906;43.590;1.418;2023-04-15T12:29:12;2.72;;;1.02;;
17574;SDS011;8906;43.590;1.418;2023-04-15T12:31:47;3.45;;;1.15;;
17574;SDS011;8906;43.590;1.418;2023-04-15T12:34:16;3.35;;;1.63;;
17574;SDS011;8906;43.590;1.418;2023-04-15T12:36:44;2.45;;;1.60;;
17574;SDS011;8906;43.590;1.418;2023-04-15T12:39:11;4.85;;;1.60;;
17574;SDS011;8906;43.590;1.418;2023-04-15T12:41:38;6.47;;;1.65;;
17574;SDS011;8906;43.590;1.418;2023-04-15T12:44:06;1.27;;;1.13;;
17574;SDS011;8906;43.590;1.418;2023-04-15T12:46:34;2.70;;;1.10;;
17574;SDS011;8906;43.590;1.418;2023-04-15T12:49:01;4.25;;;0.90;;
17574;SDS011;8906;43.590;1.418;2023-04-15T12:51:28;4.18;;;1.15;;
17574;SDS011;8906;43.590;1.418;2023-04-15T12:53:56;1.13;;;1.00;;
17574;SDS011;8906;43.590;1.418;2023-04-15T12:56:23;5.90;;;1.38;;
17574;SDS011;8906;43.590;1.418;2023-04-15T12:58:50;2.00;;;1.10;;
17574;SDS011;8906;43.590;1.418;2023-04-15T13:01:17;1.33;;;0.93;;
17574;SDS011;8906;43.590;1.418;2023-04-15T13:03:46;2.35;;;1.05;;
17574;SDS011;8906;43.590;1.418;2023-04-15T13:06:14;2.60;;;1.30;;
17574;SDS011;8906;43.590;1.418;2023-04-15T13:08:41;3.45;;;0.93;;
17574;SDS011;8906;43.590;1.418;2023-04-15T13:11:08;4.85;;;1.40;;
17574;SDS011;8906;43.590;1.418;2023-04-15T13:13:35;3.72;;;1.40;;
17574;SDS011;8906;43.590;1.418;2023-04-15T13:16:02;2.08;;;0.93;;
17574;SDS011;8906;43.590;1.418;2023-04-15T13:18:30;4.88;;;1.27;;
17574;SDS011;8906;43.590;1.418;2023-04-15T13:21:01;4.63;;;1.23;;
17574;SDS011;8906;43.590;1.418;2023-04-15T13:23:28;1.65;;;0.77;;
17574;SDS011;8906;43.590;1.418;2023-04-15T13:25:55;3.58;;;1.55;;
17574;SDS011;8906;43.590;1.418;2023-04-15T13:28:22;5.32;;;0.98;;
17574;SDS011;8906;43.590;1.418;2023-04-15T13:30:49;2.83;;;1.35;;
17574;SDS011;8906;43.590;1.418;2023-04-15T13:33:16;1.50;;;0.88;;
17574;SDS011;8906;43.590;1.418;2023-04-15T13:35:43;2.75;;;1.20;;
17574;SDS011;8906;43.590;1.418;2023-04-15T13:38:11;2.90;;;0.80;;
17574;SDS011;8906;43.590;1.418;2023-04-15T13:40:38;2.72;;;0.73;;
17574;SDS011;8906;43.590;1.418;2023-04-15T13:43:05;4.53;;;1.08;;
17574;SDS011;8906;43.590;1.418;2023-04-15T13:45:32;1.83;;;1.10;;
17574;SDS011;8906;43.590;1.418;2023-04-15T13:47:59;2.90;;;1.13;;
17574;SDS011;8906;43.590;1.418;2023-04-15T13:50:26;2.65;;;0.80;;
17574;SDS011;8906;43.590;1.418;2023-04-15T13:52:54;2.25;;;1.40;;
17574;SDS011;8906;43.590;1.418;2023-04-15T13:55:22;2.35;;;1.30;;
17574;SDS011;8906;43.590;1.418;2023-04-15T13:57:49;2.05;;;1.33;;
17574;SDS011;8906;43.590;1.418;2023-04-15T14:00:16;3.78;;;1.27;;
17574;SDS011;8906;43.590;1.418;2023-04-15T14:02:43;3.28;;;1.63;;
17574;SDS011;8906;43.590;1.418;2023-04-15T14:05:10;3.42;;;0.77;;
17574;SDS011;8906;43.590;1.418;2023-04-15T14:07:37;2.03;;;0.90;;
17574;SDS011;8906;43.590;1.418;2023-04-15T14:10:05;1.70;;;0.90;;
17574;SDS011;8906;43.590;1.418;2023-04-15T14:12:34;1.95;;;1.27;;
17574;SDS011;8906;43.590;1.418;2023-04-15T14:15:01;4.88;;;1.90;;
17574;SDS011;8906;43.590;1.418;2023-04-15T14:17:28;1.17;;;0.98;;
17574;SDS011;8906;43.590;1.418;2023-04-15T14:19:55;4.78;;;2.63;;
17574;SDS011;8906;43.590;1.418;2023-04-15T14:22:22;3.65;;;1.35;;
17574;SDS011;8906;43.590;1.418;2023-04-15T14:24:49;2.25;;;1.08;;
17574;SDS011;8906;43.590;1.418;2023-04-15T14:27:17;2.05;;;1.08;;
17574;SDS011;8906;43.590;1.418;2023-04-15T14:29:46;5.15;;;1.02;;
17574;SDS011;8906;43.590;1.418;2023-04-15T14:32:13;1.75;;;1.13;;
17574;SDS011;8906;43.590;1.418;2023-04-15T14:34:40;1.05;;;0.70;;
17574;SDS011;8906;43.590;1.418;2023-04-15T14:37:07;2.17;;;1.23;;
17574;SDS011;8906;43.590;1.418;2023-04-15T14:39:34;2.70;;;1.40;;
17574;SDS011;8906;43.590;1.418;2023-04-15T14:42:00;1.60;;;1.30;;
17574;SDS011;8906;43.590;1.418;2023-04-15T14:44:27;2.42;;;0.77;;
17574;SDS011;8906;43.590;1.418;2023-04-15T14:46:56;1.80;;;1.00;;
17574;SDS011;8906;43.590;1.418;2023-04-15T14:49:22;3.78;;;1.10;;
17574;SDS011;8906;43.590;1.418;2023-04-15T14:51:50;2.05;;;1.25;;
17574;SDS011;8906;43.590;1.418;2023-04-15T14:54:17;2.75;;;1.20;;
17574;SDS011;8906;43.590;1.418;2023-04-15T14:56:43;1.63;;;1.25;;
17574;SDS011;8906;43.590;1.418;2023-04-15T14:59:10;3.80;;;1.40;;
17574;SDS011;8906;43.590;1.418;2023-04-15T15:01:37;2.97;;;1.17;;
17574;SDS011;8906;43.590;1.418;2023-04-15T15:04:06;3.70;;;0.70;;
17574;SDS011;8906;43.590;1.418;2023-04-15T15:06:33;2.85;;;1.30;;